Time;durP1;ratioP1;P1;durP2;ratioP2;P2;SDS_P1;SDS_P2;PMS_P1;PMS_P2;Temp;Humidity;BMP_temperature;BMP_pressure;BME280_temperature;BME280_humidity;BME280_pressure;Samples;Min_cycle;Max_cycle;Signal;HPM_P1;HPM_P2
2023/12/24 00:01:45;;;;;;;23.00;21.50;;;;;;;2.98;100.00;100033.59;5124300;27;20067;-72
2023/12/24 00:04:13;;;;;;;26.17;24.48;;;;;;;3.00;100.00;100035.25;5089404;28;20420;-71
2023/12/24 00:06:41;;;;;;;32.90;30.90;;;;;;;2.96;100.00;100035.56;5094361;28;20043;-75
2023/12/24 00:09:09;;;;;;;27.25;25.50;;;;;;;3.06;100.00;100037.16;5109302;28;20061;-70
2023/12/24 00:11:35;;;;;;;26.98;25.27;;;;;;;2.92;100.00;100033.47;5089378;28;20044;-70
2023/12/24 00:14:03;;;;;;;25.50;23.80;;;;;;;2.97;100.00;100026.72;5112867;27;20039;-72
2023/12/24 00:16:31;;;;;;;29.08;27.17;;;;;;;2.86;100.00;100027.09;5090540;27;20059;-74
2023/12/24 00:18:58;;;;;;;28.77;26.98;;;;;;;2.88;100.00;100027.75;5113232;27;20101;-72
2023/12/24 00:21:25;;;;;;;23.48;21.88;;;;;;;2.97;100.00;100029.34;5098636;28;20402;-72
2023/12/24 00:23:55;;;;;;;25.95;24.25;;;;;;;2.87;100.00;100036.59;5109875;27;20057;-73
2023/12/24 00:26:23;;;;;;;27.88;26.08;;;;;;;2.75;100.00;100051.91;5108866;27;20439;-73
2023/12/24 00:28:51;;;;;;;26.65;24.85;;;;;;;2.64;100.00;100057.53;5114098;27;20047;-73
2023/12/24 00:31:18;;;;;;;25.88;24.17;;;;;;;2.73;100.00;100046.03;5114807;27;20040;-72
2023/12/24 00:33:45;;;;;;;28.25;26.35;;;;;;;2.56;100.00;100057.56;5107983;27;20063;-73
2023/12/24 00:36:12;;;;;;;29.55;27.65;;;;;;;2.45;100.00;100064.00;5109649;27;20051;-75
2023/12/24 00:38:39;;;;;;;31.35;29.25;;;;;;;2.48;100.00;100061.03;5106211;28;20043;-73
2023/12/24 00:41:07;;;;;;;27.23;25.42;;;;;;;2.50;100.00;100069.53;5129402;27;20040;-72
2023/12/24 00:43:34;;;;;;;32.03;30.02;;;;;;;2.42;100.00;100068.75;5108439;27;20052;-73
2023/12/24 00:46:01;;;;;;;31.02;29.02;;;;;;;2.45;100.00;100064.00;5113352;27;20512;-72
2023/12/24 00:48:28;;;;;;;27.20;25.20;;;;;;;2.26;100.00;100053.88;5090049;28;20052;-73
2023/12/24 00:50:54;;;;;;;23.35;21.67;;;;;;;2.18;100.00;100080.09;5114146;28;20059;-72
2023/12/24 00:53:21;;;;;;;23.42;21.73;;;;;;;2.05;100.00;100070.13;5097387;28;20432;-72
2023/12/24 00:55:48;;;;;;;24.05;22.35;;;;;;;1.96;100.00;100077.19;5088025;28;20051;-70
2023/12/24 00:58:17;;;;;;;22.02;20.33;;;;;;;1.83;100.00;100074.25;5094676;28;20051;-70
2023/12/24 01:00:46;;;;;;;22.60;21.00;;;;;;;1.50;100.00;100063.78;5090540;28;20052;-71
2023/12/24 01:03:13;;;;;;;23.40;21.70;;;;;;;1.46;100.00;100072.13;5095825;28;20056;-71
2023/12/24 01:05:40;;;;;;;22.73;21.13;;;;;;;1.58;100.00;100082.13;5106425;28;20059;-71
2023/12/24 01:08:14;;;;;;;23.35;21.65;;;;;;;1.59;100.00;100103.88;5111607;28;20057;-73
2023/12/24 01:10:49;;;;;;;24.08;22.35;;;;;;;1.53;100.00;100100.09;5096713;28;20048;-73
2023/12/24 01:13:19;;;;;;;24.48;22.67;;;;;;;1.50;100.00;100108.28;5108561;28;20043;-73
2023/12/24 01:15:47;;;;;;;24.75;22.98;;;;;;;1.42;100.00;100105.63;5099914;28;20048;-73
2023/12/24 01:18:14;;;;;;;27.65;25.85;;;;;;;1.13;100.00;100100.84;5105357;28;20048;-73
2023/12/24 01:20:40;;;;;;;27.67;25.77;;;;;;;1.06;100.00;100105.91;5111539;27;20402;-73
2023/12/24 01:23:07;;;;;;;24.33;22.63;;;;;;;1.13;100.00;100106.09;5088676;28;20098;-73
2023/12/24 01:25:34;;;;;;;22.20;20.60;;;;;;;0.91;100.00;100091.81;5123277;28;20057;-73
2023/12/24 01:28:01;;;;;;;23.23;21.52;;;;;;;0.68;100.00;100096.78;5112451;28;20043;-72
2023/12/24 01:30:29;;;;;;;21.40;19.80;;;;;;;0.85;100.00;100123.81;5121810;28;20051;-71
2023/12/24 01:32:57;;;;;;;21.25;19.65;;;;;;;0.96;100.00;100113.06;5103138;28;20044;-71
2023/12/24 01:35:24;;;;;;;23.02;21.40;;;;;;;0.90;100.00;100137.22;5091309;28;20063;-71
2023/12/24 01:37:51;;;;;;;23.90;22.30;;;;;;;0.80;100.00;100120.84;5107486;28;20104;-71
2023/12/24 01:40:18;;;;;;;22.20;20.60;;;;;;;0.78;100.00;100147.13;5106025;28;20520;-70
2023/12/24 01:42:45;;;;;;;22.95;21.25;;;;;;;0.88;100.00;100139.19;5094209;28;20075;-71
2023/12/24 01:45:12;;;;;;;24.60;22.90;;;;;;;0.96;100.00;100127.94;5105856;28;20817;-72
2023/12/24 01:47:42;;;;;;;22.75;21.15;;;;;;;1.02;100.00;100132.53;5089913;28;20040;-71
2023/12/24 01:50:10;;;;;;;23.55;21.88;;;;;;;0.97;100.00;100130.41;5100959;28;20071;-73
2023/12/24 01:52:37;;;;;;;24.38;22.58;;;;;;;0.72;100.00;100136.47;5092255;28;20078;-71
2023/12/24 01:55:06;;;;;;;24.45;22.85;;;;;;;0.66;100.00;100143.16;5102280;27;20040;-70
2023/12/24 01:57:34;;;;;;;23.33;21.73;;;;;;;0.70;100.00;100173.25;5102183;28;20055;-71
2023/12/24 02:00:02;;;;;;;21.27;19.77;;;;;;;0.88;100.00;100173.19;5107345;28;20055;-70
2023/12/24 02:02:31;;;;;;;26.42;24.42;;;;;;;0.56;100.00;100168.59;5102512;27;20511;-71
2023/12/24 02:05:00;;;;;;;23.95;22.35;;;;;;;0.70;100.00;100175.88;5095255;28;20052;-73
2023/12/24 02:07:28;;;;;;;21.25;19.75;;;;;;;0.82;100.00;100177.25;5100158;27;20129;-73
2023/12/24 02:10:02;;;;;;;22.27;20.77;;;;;;;0.87;100.00;100171.53;5117860;27;20489;-72
2023/12/24 02:12:35;;;;;;;23.38;21.77;;;;;;;0.83;100.00;100171.03;5116768;27;20043;-73
2023/12/24 02:15:02;;;;;;;24.00;22.30;;;;;;;0.78;100.00;100180.31;5113933;27;20047;-72
2023/12/24 02:17:31;;;;;;;23.48;21.77;;;;;;;0.71;100.00;100206.25;5106366;28;20787;-73
2023/12/24 02:20:01;;;;;;;22.10;20.60;;;;;;;0.84;100.00;100211.06;5111295;27;20524;-73
2023/12/24 02:22:29;;;;;;;20.65;19.15;;;;;;;0.85;100.00;100210.91;5105606;28;20048;-73
2023/12/24 02:24:57;;;;;;;23.08;21.48;;;;;;;0.71;100.00;100208.06;5123454;27;20055;-72
2023/12/24 02:27:31;;;;;;;22.48;20.88;;;;;;;0.79;100.00;100214.16;5099314;28;20059;-72
2023/12/24 02:30:05;;;;;;;24.65;22.95;;;;;;;0.90;100.00;100221.72;5120771;27;20409;-73
2023/12/24 02:32:45;;;;;;;23.52;21.92;;;;;;;0.88;100.00;100234.13;5093034;27;20048;-73
2023/12/24 02:35:13;;;;;;;26.80;24.40;;;;;;;0.73;100.00;100233.06;5105365;27;20793;-73
2023/12/24 02:37:42;;;;;;;22.30;20.70;;;;;;;0.67;100.00;100239.72;5107365;28;20051;-73
2023/12/24 02:40:09;;;;;;;21.88;20.30;;;;;;;0.69;100.00;100229.09;5107306;27;20417;-71
2023/12/24 02:42:36;;;;;;;25.45;23.65;;;;;;;0.69;100.00;100234.31;5107483;28;20044;-72
2023/12/24 02:45:03;;;;;;;23.25;21.55;;;;;;;0.70;100.00;100246.44;5107188;27;20079;-71
2023/12/24 02:47:30;;;;;;;26.63;24.65;;;;;;;0.62;100.00;100262.88;5090644;28;20048;-71
2023/12/24 02:49:57;;;;;;;29.52;26.58;;;;;;;0.64;100.00;100270.59;5118052;27;20039;-70
2023/12/24 02:52:24;;;;;;;25.20;23.55;;;;;;;0.63;100.00;100285.41;5108512;28;20070;-73
2023/12/24 02:54:52;;;;;;;25.38;23.55;;;;;;;0.62;100.00;100278.56;5111869;27;20456;-73
2023/12/24 02:57:20;;;;;;;25.40;23.58;;;;;;;0.38;100.00;100270.53;5118016;27;20724;-74
2023/12/24 02:59:46;;;;;;;24.50;22.70;;;;;;;0.16;100.00;100280.47;5102483;28;20486;-73
2023/12/24 03:02:13;;;;;;;24.98;23.27;;;;;;;-0.04;100.00;100282.38;5116938;27;20062;-73
2023/12/24 03:04:42;;;;;;;24.98;23.17;;;;;;;0.25;100.00;100297.03;5105159;28;20429;-72
2023/12/24 03:07:09;;;;;;;23.30;21.60;;;;;;;0.33;100.00;100304.94;5107033;27;20058;-71
2023/12/24 03:09:36;;;;;;;21.50;20.10;;;;;;;0.36;100.00;100301.19;5103552;27;20051;-72
2023/12/24 03:12:05;;;;;;;21.73;20.30;;;;;;;0.04;100.00;100299.13;5091480;28;20052;-73
2023/12/24 03:14:32;;;;;;;23.30;21.70;;;;;;;-0.12;100.00;100308.44;5106861;27;20056;-73
2023/12/24 03:17:00;;;;;;;22.77;21.17;;;;;;;-0.21;100.00;100303.22;5116190;27;20047;-73
2023/12/24 03:19:26;;;;;;;23.90;22.20;;;;;;;-0.15;100.00;100302.66;5110847;27;20048;-73
2023/12/24 03:21:53;;;;;;;24.92;23.25;;;;;;;-0.17;100.00;100305.41;5092116;28;20593;-73
2023/12/24 03:24:20;;;;;;;25.65;23.70;;;;;;;-0.14;100.00;100304.31;5130460;27;20062;-73
2023/12/24 03:26:47;;;;;;;24.92;22.70;;;;;;;-0.20;100.00;100312.72;5099006;27;20059;-73
2023/12/24 03:29:16;;;;;;;24.17;22.48;;;;;;;-0.25;100.00;100328.81;5108562;27;20467;-73
2023/12/24 03:31:42;;;;;;;24.17;22.35;;;;;;;-0.25;100.00;100342.69;5111537;28;20588;-73
2023/12/24 03:34:09;;;;;;;24.05;22.40;;;;;;;-0.51;100.00;100349.53;5100667;28;20056;-74
2023/12/24 03:36:36;;;;;;;23.83;22.13;;;;;;;-0.74;100.00;100343.84;5094982;28;20417;-73
2023/12/24 03:39:03;;;;;;;22.00;20.50;;;;;;;-0.73;100.00;100348.94;5113659;27;20043;-73
2023/12/24 03:41:31;;;;;;;21.02;19.63;;;;;;;-0.60;100.00;100356.44;5090216;28;20048;-74
2023/12/24 03:43:58;;;;;;;23.08;21.48;;;;;;;-0.82;100.00;100362.78;5098108;28;20062;-73
2023/12/24 03:46:27;;;;;;;23.75;22.15;;;;;;;-0.98;100.00;100358.16;5100251;27;20436;-73
2023/12/24 03:48:54;;;;;;;22.60;21.00;;;;;;;-0.97;100.00;100353.75;5099887;28;20718;-74
2023/12/24 03:51:27;;;;;;;21.48;19.98;;;;;;;-0.90;100.00;100364.47;5101749;27;20496;-74
2023/12/24 03:53:53;;;;;;;24.00;22.23;;;;;;;-0.86;100.00;100384.91;5101119;28;20083;-73
2023/12/24 03:56:20;;;;;;;25.70;23.70;;;;;;;-1.01;100.00;100381.91;5102875;27;20500;-73
2023/12/24 03:58:47;;;;;;;21.35;19.85;;;;;;;-1.20;100.00;100379.31;5092060;28;20052;-73
2023/12/24 04:01:14;;;;;;;22.27;20.77;;;;;;;-1.34;100.00;100382.34;5091524;28;20060;-72
2023/12/24 04:03:44;;;;;;;22.67;21.08;;;;;;;-1.20;100.00;100379.31;5094710;28;20051;-71
2023/12/24 04:06:15;;;;;;;22.70;21.02;;;;;;;-1.20;100.00;100377.53;5103239;28;20047;-71
2023/12/24 04:08:42;;;;;;;21.73;20.13;;;;;;;-1.11;100.00;100391.53;5113371;27;20054;-73
2023/12/24 04:11:12;;;;;;;21.88;20.27;;;;;;;-1.08;100.00;100390.44;5103770;28;20044;-73
2023/12/24 04:13:39;;;;;;;23.00;21.50;;;;;;;-1.05;100.00;100383.16;5112142;27;20135;-71
2023/12/24 04:16:08;;;;;;;22.70;21.10;;;;;;;-1.03;100.00;100396.88;5101487;27;20060;-70
2023/12/24 04:18:35;;;;;;;22.08;20.58;;;;;;;-1.20;100.00;100395.78;5089377;28;20056;-70
2023/12/24 04:21:04;;;;;;;24.58;22.77;;;;;;;-1.40;100.00;100405.34;5099072;27;20523;-71
2023/12/24 04:23:31;;;;;;;25.27;23.55;;;;;;;-1.22;100.00;100387.25;5084054;28;20063;-72
2023/12/24 04:25:58;;;;;;;24.90;22.90;;;;;;;-1.04;100.00;100405.63;5102172;28;20048;-71
2023/12/24 04:28:25;;;;;;;24.30;22.60;;;;;;;-0.92;100.00;100409.75;5097368;28;20055;-73
2023/12/24 04:30:52;;;;;;;25.67;23.40;;;;;;;-1.05;100.00;100419.66;5113778;27;20043;-74
2023/12/24 04:33:24;;;;;;;25.00;23.23;;;;;;;-1.04;100.00;100420.47;5129637;27;20039;-73
2023/12/24 04:35:58;;;;;;;21.73;20.17;;;;;;;-1.05;100.00;100434.47;5109098;28;20044;-73
2023/12/24 04:38:26;;;;;;;23.10;21.40;;;;;;;-1.20;100.00;100429.66;5110070;27;20051;-73
2023/12/24 04:40:53;;;;;;;25.35;23.63;;;;;;;-1.11;100.00;100432.41;5091542;28;20048;-71
2023/12/24 04:43:19;;;;;;;24.00;22.40;;;;;;;-1.26;100.00;100440.63;5109905;28;20529;-73
2023/12/24 04:45:46;;;;;;;20.98;19.48;;;;;;;-1.14;100.00;100437.91;5108011;28;20040;-70
2023/12/24 04:48:13;;;;;;;22.40;20.90;;;;;;;-1.23;100.00;100447.34;5108276;28;20061;-71
2023/12/24 04:50:42;;;;;;;23.90;22.10;;;;;;;-1.06;100.00;100462.31;5104637;28;20047;-71
2023/12/24 04:53:09;;;;;;;21.27;19.77;;;;;;;-1.09;100.00;100460.00;5104346;28;20039;-72
2023/12/24 04:55:39;;;;;;;22.10;20.50;;;;;;;-1.13;100.00;100483.84;5101156;28;20797;-71
2023/12/24 04:58:06;;;;;;;23.58;21.98;;;;;;;-1.11;100.00;100477.53;5110375;28;20094;-71
2023/12/24 05:00:32;;;;;;;23.55;21.95;;;;;;;-1.39;100.00;100490.41;5097504;28;20048;-71
2023/12/24 05:02:59;;;;;;;23.27;21.65;;;;;;;-1.33;100.00;100488.19;5112609;28;20447;-71
2023/12/24 05:05:26;;;;;;;22.60;21.00;;;;;;;-1.24;100.00;100490.00;5092962;28;20055;-74
2023/12/24 05:07:53;;;;;;;23.17;21.48;;;;;;;-1.46;100.00;100489.28;5090961;28;20437;-73
2023/12/24 05:10:20;;;;;;;24.40;22.75;;;;;;;-1.54;100.00;100489.13;5094574;28;20052;-73
2023/12/24 05:12:57;;;;;;;22.55;21.02;;;;;;;-1.48;100.00;100486.00;5109839;28;20530;-73
2023/12/24 05:15:24;;;;;;;22.75;21.25;;;;;;;-1.61;100.00;100486.22;5107749;28;20059;-74
2023/12/24 05:17:52;;;;;;;24.10;22.40;;;;;;;-1.55;100.00;100497.88;5101087;28;20130;-74
2023/12/24 05:20:20;;;;;;;21.67;20.25;;;;;;;-1.42;100.00;100511.50;5099516;28;20413;-73
2023/12/24 05:22:46;;;;;;;21.88;20.48;;;;;;;-1.42;100.00;100510.69;5083909;28;20048;-71
2023/12/24 05:25:15;;;;;;;23.10;21.60;;;;;;;-1.59;100.00;100513.94;5107679;28;20055;-71
2023/12/24 05:27:42;;;;;;;24.60;22.98;;;;;;;-1.62;100.00;100528.03;5094571;28;20055;-71
2023/12/24 05:30:12;;;;;;;24.00;22.10;;;;;;;-1.45;100.00;100530.03;5122542;27;20067;-72
2023/12/24 05:32:39;;;;;;;21.02;19.60;;;;;;;-1.69;100.00;100525.13;5108593;27;20056;-72
2023/12/24 05:35:09;;;;;;;23.75;22.25;;;;;;;-1.64;100.00;100528.16;5113071;27;20549;-73
2023/12/24 05:37:38;;;;;;;22.13;20.63;;;;;;;-1.51;100.00;100540.13;5096595;28;20048;-72
2023/12/24 05:40:06;;;;;;;19.70;18.40;;;;;;;-1.38;100.00;100546.75;5100722;27;20048;-71
2023/12/24 05:42:33;;;;;;;21.73;20.13;;;;;;;-1.19;100.00;100543.38;5112883;27;21032;-72
2023/12/24 05:44:59;;;;;;;20.42;19.23;;;;;;;-1.10;100.00;100548.75;5104876;27;20050;-71
2023/12/24 05:47:28;;;;;;;20.55;19.25;;;;;;;-1.30;100.00;100535.69;5110488;27;20523;-73
2023/12/24 05:49:54;;;;;;;21.05;19.65;;;;;;;-1.25;100.00;100533.47;5117275;27;20043;-72
2023/12/24 05:52:21;;;;;;;21.08;19.67;;;;;;;-1.06;100.00;100540.53;5112315;27;20062;-71
2023/12/24 05:54:49;;;;;;;21.40;20.10;;;;;;;-0.90;100.00;100552.22;5093436;27;20063;-74
2023/12/24 05:57:15;;;;;;;20.23;18.95;;;;;;;-0.94;100.00;100549.88;5099522;27;20700;-74
2023/12/24 05:59:43;;;;;;;21.05;19.75;;;;;;;-0.76;100.00;100555.22;5096739;28;20044;-74
2023/12/24 06:02:11;;;;;;;21.65;20.30;;;;;;;-0.82;100.00;100557.56;5106572;27;20047;-74
2023/12/24 06:04:39;;;;;;;22.58;21.08;;;;;;;-0.66;100.00;100555.25;5118176;27;20067;-74
2023/12/24 06:07:06;;;;;;;21.02;19.58;;;;;;;-0.84;100.00;100562.09;5102830;27;20046;-73
2023/12/24 06:09:33;;;;;;;21.40;20.00;;;;;;;-0.68;100.00;100558.97;5120544;27;20070;-73
2023/12/24 06:12:00;;;;;;;22.70;21.20;;;;;;;-0.51;100.00;100566.09;5096158;28;20117;-74
2023/12/24 06:14:27;;;;;;;23.55;22.05;;;;;;;-0.49;100.00;100566.78;5110893;27;20044;-74
2023/12/24 06:16:54;;;;;;;21.80;20.40;;;;;;;-0.31;100.00;100567.72;5096283;28;20054;-73
2023/12/24 06:19:20;;;;;;;23.48;21.98;;;;;;;-0.31;100.00;100569.50;5122837;27;20043;-73
2023/12/24 06:21:49;;;;;;;21.23;19.83;;;;;;;-0.26;100.00;100572.53;5101786;28;20048;-71
2023/12/24 06:24:19;;;;;;;22.50;20.90;;;;;;;-0.25;100.00;100582.81;5102573;28;20056;-71
2023/12/24 06:26:46;;;;;;;23.65;21.85;;;;;;;-0.23;100.00;100582.69;5100436;28;20067;-71
2023/12/24 06:29:13;;;;;;;22.15;20.65;;;;;;;-0.46;100.00;100579.53;5103841;27;20055;-72
2023/12/24 06:31:39;;;;;;;22.65;21.02;;;;;;;-0.33;100.00;100581.91;5114550;27;20043;-71
2023/12/24 06:34:06;;;;;;;21.75;20.35;;;;;;;-0.16;100.00;100589.00;5109735;27;20052;-71
2023/12/24 06:36:33;;;;;;;23.33;21.73;;;;;;;-0.11;100.00;100604.25;5118184;27;20047;-71
2023/12/24 06:39:01;;;;;;;22.02;20.52;;;;;;;-0.06;100.00;100605.50;5107848;28;20044;-71
2023/12/24 06:41:29;;;;;;;21.88;20.48;;;;;;;0.04;100.00;100607.28;5119042;27;20063;-71
2023/12/24 06:43:56;;;;;;;33.63;30.92;;;;;;;0.09;100.00;100618.09;5114501;27;20051;-71
2023/12/24 06:46:24;;;;;;;34.15;31.55;;;;;;;0.08;100.00;100626.91;5100153;28;20074;-71
2023/12/24 06:48:52;;;;;;;24.65;22.90;;;;;;;0.23;100.00;100621.09;5101807;28;20065;-73
2023/12/24 06:51:19;;;;;;;25.33;23.52;;;;;;;0.29;100.00;100629.34;5108574;27;20052;-72
2023/12/24 06:53:45;;;;;;;26.02;24.13;;;;;;;0.44;100.00;100628.75;5105574;28;20480;-72
2023/12/24 06:56:15;;;;;;;25.33;23.65;;;;;;;0.51;100.00;100636.00;5105169;28;20055;-73
2023/12/24 06:58:42;;;;;;;24.13;22.55;;;;;;;0.58;100.00;100622.25;5096023;27;20052;-72
2023/12/24 07:01:09;;;;;;;25.58;23.98;;;;;;;0.77;100.00;100604.84;5111321;27;20062;-71
2023/12/24 07:03:36;;;;;;;25.77;24.08;;;;;;;0.77;100.00;100603.03;5092153;28;20044;-71
2023/12/24 07:06:03;;;;;;;29.90;27.90;;;;;;;0.94;100.00;100597.97;5110826;27;20051;-72
2023/12/24 07:08:31;;;;;;;25.83;24.08;;;;;;;1.09;100.00;100597.38;5092338;28;20091;-71
2023/12/24 07:10:57;;;;;;;27.80;25.83;;;;;;;1.39;100.00;100603.19;5092546;28;20140;-71
2023/12/24 07:13:26;;;;;;;31.50;28.67;;;;;;;1.47;100.00;100611.16;5095035;28;20071;-72
2023/12/24 07:15:53;;;;;;;25.45;23.75;;;;;;;1.78;100.00;100622.06;5108039;28;20055;-71
2023/12/24 07:18:19;;;;;;;28.75;26.55;;;;;;;2.51;100.00;100642.72;5103687;28;20079;-72
2023/12/24 07:20:47;;;;;;;27.83;25.85;;;;;;;2.32;100.00;100642.09;5103617;27;20052;-72
2023/12/24 07:23:14;;;;;;;29.02;26.83;;;;;;;2.27;100.00;100632.91;5089634;28;20055;-71
2023/12/24 07:25:40;;;;;;;27.92;25.83;;;;;;;2.51;100.00;100631.41;5113177;27;20424;-71
2023/12/24 07:28:07;;;;;;;27.60;25.50;;;;;;;2.40;100.00;100622.00;5101924;27;20054;-71
2023/12/24 07:30:35;;;;;;;27.77;25.60;;;;;;;2.25;100.00;100615.69;5108085;28;20051;-71
2023/12/24 07:33:03;;;;;;;27.75;25.70;;;;;;;2.52;100.00;100619.97;5118056;27;20047;-71
2023/12/24 07:35:30;;;;;;;30.27;28.05;;;;;;;2.66;100.00;100621.16;5083772;27;20074;-70
2023/12/24 07:37:57;;;;;;;26.77;24.60;;;;;;;2.44;100.00;100625.97;5033357;28;20060;-70
2023/12/24 07:40:24;;;;;;;29.27;27.02;;;;;;;2.54;100.00;100623.22;5049198;28;20568;-70
2023/12/24 07:42:51;;;;;;;26.20;24.30;;;;;;;2.62;100.00;100620.66;5040325;28;20044;-71
2023/12/24 07:45:19;;;;;;;28.20;26.05;;;;;;;2.62;100.00;100628.53;5031583;28;20072;-70
2023/12/24 07:47:46;;;;;;;29.27;27.05;;;;;;;2.69;100.00;100628.72;5045431;28;20055;-71
2023/12/24 07:50:13;;;;;;;29.27;27.15;;;;;;;2.43;100.00;100626.94;5045780;28;20135;-72
2023/12/24 07:52:40;;;;;;;29.30;26.98;;;;;;;2.67;100.00;100641.19;5036360;28;20065;-70
2023/12/24 07:55:08;;;;;;;28.23;25.98;;;;;;;2.96;100.00;100653.91;5033117;28;20053;-71
2023/12/24 07:57:35;;;;;;;27.90;25.92;;;;;;;2.81;100.00;100647.63;5045301;28;20486;-70
2023/12/24 08:00:04;;;;;;;27.17;25.27;;;;;;;2.36;100.00;100646.06;5045878;28;20049;-70
2023/12/24 08:02:31;;;;;;;30.45;28.20;;;;;;;2.97;100.00;100640.66;5044656;28;20057;-70
2023/12/24 08:05:00;;;;;;;30.23;27.92;;;;;;;2.82;100.00;100657.16;5046381;28;20104;-71
2023/12/24 08:07:28;;;;;;;30.92;28.63;;;;;;;3.25;100.00;100661.41;5052697;28;20060;-72
2023/12/24 08:09:56;;;;;;;31.42;28.80;;;;;;;3.35;100.00;100666.53;5046827;28;20052;-71
2023/12/24 08:12:24;;;;;;;26.77;24.88;;;;;;;3.35;100.00;100669.16;5049744;28;20053;-71
2023/12/24 08:14:51;;;;;;;24.20;22.45;;;;;;;3.31;100.00;100660.78;5043494;28;20045;-77
2023/12/24 08:17:18;;;;;;;24.42;22.63;;;;;;;3.45;100.00;100669.84;5045728;28;20139;-72
2023/12/24 08:19:44;;;;;;;24.35;22.55;;;;;;;3.44;100.00;100669.00;5047920;28;20151;-72
2023/12/24 08:22:13;;;;;;;27.42;24.90;;;;;;;3.62;100.00;100658.38;5050012;28;20053;-72
2023/12/24 08:24:41;;;;;;;27.52;25.52;;;;;;;3.70;100.00;100654.13;5042796;28;20052;-72
2023/12/24 08:27:08;;;;;;;30.60;27.92;;;;;;;3.65;100.00;100644.91;5057302;28;20064;-73
2023/12/24 08:29:35;;;;;;;33.95;31.58;;;;;;;4.11;100.00;100644.44;5045911;28;20060;-71
2023/12/24 08:32:02;;;;;;;31.92;29.83;;;;;;;4.66;100.00;100650.75;5041212;28;20072;-71
2023/12/24 08:34:29;;;;;;;47.40;44.50;;;;;;;5.24;100.00;100647.75;5040089;28;20529;-71
2023/12/24 08:36:57;;;;;;;40.70;38.00;;;;;;;6.43;100.00;100646.38;5046751;28;20454;-71
2023/12/24 08:39:26;;;;;;;47.13;43.15;;;;;;;7.23;100.00;100643.97;5047699;28;20470;-73
2023/12/24 08:41:53;;;;;;;31.83;29.70;;;;;;;7.26;100.00;100631.22;5046693;28;20059;-72
2023/12/24 08:44:20;;;;;;;27.80;25.60;;;;;;;7.12;100.00;100632.06;5045637;28;20063;-72
2023/12/24 08:46:48;;;;;;;29.60;27.15;;;;;;;7.22;100.00;100637.03;5043850;28;20053;-72
2023/12/24 08:49:15;;;;;;;27.55;25.38;;;;;;;7.00;100.00;100637.00;5047324;28;20069;-72
2023/12/24 08:51:42;;;;;;;36.03;33.63;;;;;;;7.27;100.00;100637.31;5047487;28;20044;-69
2023/12/24 08:54:09;;;;;;;33.53;30.67;;;;;;;8.05;100.00;100643.59;5038106;28;20571;-68
2023/12/24 08:56:37;;;;;;;34.53;31.05;;;;;;;8.27;100.00;100639.06;5039209;28;21301;-67
2023/12/24 08:59:07;;;;;;;27.60;24.60;;;;;;;8.45;100.00;100633.31;5034035;28;20049;-68
2023/12/24 09:04:10;;;;;;;39.95;36.85;;;;;;;8.22;100.00;100634.34;2722088;23;20080;-62
2023/12/24 09:06:38;;;;;;;35.42;32.33;;;;;;;8.63;100.00;100641.56;4959480;28;20055;-59
2023/12/24 09:09:05;;;;;;;38.67;35.53;;;;;;;8.63;100.00;100635.47;4965865;28;20559;-58
2023/12/24 09:11:32;;;;;;;33.78;30.48;;;;;;;8.68;100.00;100628.56;4968118;28;20050;-60
2023/12/24 09:14:00;;;;;;;28.52;25.73;;;;;;;8.70;100.00;100615.94;4968837;28;20061;-57
2023/12/24 09:16:27;;;;;;;47.35;44.55;;;;;;;8.59;100.00;100618.31;4976005;28;20081;-59
2023/12/24 09:18:53;;;;;;;44.50;42.03;;;;;;;8.89;100.00;100611.75;4974545;28;20057;-59
2023/12/24 09:21:20;;;;;;;34.35;32.25;;;;;;;9.20;100.00;100607.81;4974080;28;20576;-58
2023/12/24 09:23:47;;;;;;;32.38;30.38;;;;;;;8.88;100.00;100606.66;4967430;28;20062;-58
2023/12/24 09:26:14;;;;;;;35.25;32.40;;;;;;;8.97;100.00;100604.66;4969745;28;20633;-63
2023/12/24 09:28:41;;;;;;;34.35;32.15;;;;;;;9.08;100.00;100612.84;4967546;28;20050;-58
2023/12/24 09:31:09;;;;;;;36.85;34.55;;;;;;;9.33;100.00;100607.84;4970483;28;20157;-57
2023/12/24 09:33:36;;;;;;;35.03;32.83;;;;;;;8.89;100.00;100602.97;4972413;28;20047;-58
2023/12/24 09:36:07;;;;;;;28.35;26.45;;;;;;;9.07;100.00;100597.97;4971954;28;20060;-57
2023/12/24 09:38:34;;;;;;;26.83;25.02;;;;;;;9.36;100.00;100596.00;4964897;28;20058;-58
2023/12/24 09:41:01;;;;;;;27.92;26.13;;;;;;;9.30;100.00;100587.03;4962727;28;20457;-57
2023/12/24 09:43:30;;;;;;;29.42;27.52;;;;;;;9.13;100.00;100586.56;4960800;28;20479;-57
2023/12/24 09:45:57;;;;;;;27.98;26.08;;;;;;;8.98;100.00;100585.91;4965841;28;20165;-57
2023/12/24 09:48:25;;;;;;;25.67;23.92;;;;;;;8.99;100.00;100584.09;4964142;28;20047;-57
2023/12/24 09:50:52;;;;;;;23.92;22.23;;;;;;;8.97;100.00;100568.38;4965277;28;20050;-57
2023/12/24 09:53:19;;;;;;;24.38;22.67;;;;;;;8.91;100.00;100562.03;4965749;28;20436;-57
2023/12/24 09:55:46;;;;;;;24.00;22.30;;;;;;;8.75;100.00;100557.09;4966408;28;20508;-58
2023/12/24 09:58:12;;;;;;;23.65;21.95;;;;;;;9.08;100.00;100551.13;4965357;28;20063;-57
2023/12/24 10:00:39;;;;;;;22.45;20.95;;;;;;;8.95;100.00;100544.72;4966992;28;20055;-57
2023/12/24 10:03:06;;;;;;;23.92;22.23;;;;;;;8.83;100.00;100532.25;4965426;28;20074;-57
2023/12/24 10:05:35;;;;;;;29.70;27.60;;;;;;;8.78;100.00;100545.31;4965087;28;20055;-58
2023/12/24 10:08:02;;;;;;;25.20;23.50;;;;;;;8.82;100.00;100536.75;4964014;28;20054;-57
2023/12/24 10:10:30;;;;;;;23.92;22.20;;;;;;;8.94;100.00;100534.34;4964750;28;20053;-58
2023/12/24 10:13:05;;;;;;;22.02;20.45;;;;;;;9.00;100.00;100524.78;4960688;28;20868;-57
2023/12/24 10:15:32;;;;;;;25.88;24.17;;;;;;;8.82;100.00;100514.75;4965439;28;20516;-58
2023/12/24 10:18:16;;;;;;;26.27;24.58;;;;;;;9.14;100.00;100502.63;4963289;28;20058;-57
2023/12/24 10:20:44;;;;;;;26.75;25.05;;;;;;;9.21;100.00;100497.31;4963435;28;20519;-57
2023/12/24 10:23:11;;;;;;;30.45;28.58;;;;;;;9.48;100.00;100498.97;4960395;28;20512;-57
2023/12/24 10:25:38;;;;;;;28.55;26.70;;;;;;;9.25;100.00;100507.28;4961775;28;20061;-57
2023/12/24 10:28:06;;;;;;;31.55;29.65;;;;;;;9.18;100.00;100511.78;4965357;28;20059;-57
2023/12/24 10:30:33;;;;;;;33.30;31.30;;;;;;;9.46;100.00;100505.50;4957130;28;20101;-57
2023/12/24 10:33:08;;;;;;;32.55;30.50;;;;;;;9.87;100.00;100513.22;4964687;28;20061;-57
2023/12/24 10:35:36;;;;;;;26.75;25.05;;;;;;;10.00;100.00;100501.78;4964153;28;20101;-57
2023/12/24 10:38:15;;;;;;;26.52;24.83;;;;;;;10.12;100.00;100494.81;4958862;28;20152;-57
2023/12/24 10:40:42;;;;;;;31.45;29.45;;;;;;;10.58;100.00;100501.00;4962037;28;20055;-57
2023/12/24 10:43:08;;;;;;;32.92;30.83;;;;;;;10.50;100.00;100496.78;4965966;28;20531;-57
2023/12/24 10:45:35;;;;;;;26.45;24.85;;;;;;;10.59;100.00;100506.13;4965098;28;20046;-58
2023/12/24 10:48:03;;;;;;;29.27;27.48;;;;;;;10.47;100.00;100511.28;4966902;28;20058;-57
2023/12/24 10:50:29;;;;;;;24.25;22.65;;;;;;;10.25;100.00;100515.19;4966997;28;20070;-57
2023/12/24 10:52:56;;;;;;;23.20;21.70;;;;;;;9.60;100.00;100512.44;4966936;28;20055;-57
2023/12/24 10:55:26;;;;;;;23.40;21.80;;;;;;;10.24;100.00;100514.38;4967114;28;20054;-57
2023/12/24 10:58:05;;;;;;;27.50;25.70;;;;;;;10.07;100.00;100513.19;4966268;28;20051;-57
2023/12/24 11:00:32;;;;;;;23.23;21.73;;;;;;;10.37;100.00;100510.06;4966181;28;20484;-57
2023/12/24 11:02:59;;;;;;;22.58;21.08;;;;;;;10.43;100.00;100520.66;4964234;28;20050;-57
2023/12/24 11:05:51;;;;;;;21.83;20.42;;;;;;;9.85;100.00;100517.91;4967865;28;20363;-58
2023/12/24 11:08:36;;;;;;;26.08;24.38;;;;;;;10.03;100.00;100518.09;4956572;28;20562;-65
2023/12/24 11:11:06;;;;;;;26.30;24.65;;;;;;;9.90;100.00;100527.94;4968161;28;20073;-65
2023/12/24 11:13:48;;;;;;;23.00;21.50;;;;;;;10.06;100.00;100517.69;4960631;28;20062;-65